Terminal Aerodrome Forecast
Issued by NWS Wakefield, VA

Home | Current Version | Previous Version | Text Only | Print | Product List | Glossary On
Versions: 1 2 3 4 5 6 7 8 9 10 11 12 13 14 15 16
000
FTUS41 KAKQ 302339
TAFECG
TAF
KECG 302339Z 3100/3124 15007KT P6SM SKC
     FM310200 17003KT P6SM SKC
      TEMPO 3105/3108 1SM BR BKN004
     FM311100 20003KT P6SM SCT250
     FM311500 21006KT P6SM SCT250
     FM312000 15009KT P6SM SCT250=

USA.gov is the U.S. government's official web portal to all federal, state and local government web resources and services.